Time;durP1;ratioP1;P1;durP2;ratioP2;P2;SDS_P1;SDS_P2;PMS_P1;PMS_P2;Temp;Humidity;BMP_temperature;BMP_pressure;BME280_temperature;BME280_humidity;BME280_pressure;Samples;Min_cycle;Max_cycle;Signal;HPM_P1;HPM_P2
2023/08/25 00:02:26;;;;;;;7.85;5.75;;;26.70;99.90;;;;;;5061568;28;20205;-78
2023/08/25 00:04:53;;;;;;;6.75;6.10;;;26.80;99.90;;;;;;5065902;28;20261;-78
2023/08/25 00:07:20;;;;;;;6.38;5.75;;;26.70;99.90;;;;;;5069302;28;20219;-79
2023/08/25 00:09:47;;;;;;;7.13;5.70;;;26.70;99.90;;;;;;5061488;28;20871;-79
2023/08/25 00:12:14;;;;;;;5.90;5.15;;;26.70;99.90;;;;;;5062437;28;20198;-78
2023/08/25 00:14:41;;;;;;;6.65;5.88;;;26.60;99.90;;;;;;5063369;28;20641;-78
2023/08/25 00:17:09;;;;;;;6.82;5.22;;;26.50;99.90;;;;;;5063744;28;20279;-79
2023/08/25 00:19:37;;;;;;;6.30;5.57;;;26.50;99.90;;;;;;5063781;28;20289;-78
2023/08/25 00:22:04;;;;;;;5.72;5.20;;;26.50;99.90;;;;;;5061214;28;20206;-78
2023/08/25 00:24:32;;;;;;;8.48;5.72;;;26.60;99.90;;;;;;5058218;28;20201;-78
2023/08/25 00:26:59;;;;;;;8.57;6.03;;;26.50;99.90;;;;;;5063414;28;20310;-79
2023/08/25 00:29:26;;;;;;;7.35;5.93;;;26.60;99.90;;;;;;5059775;28;20299;-78
2023/08/25 00:31:53;;;;;;;6.53;5.93;;;26.60;99.90;;;;;;5063154;28;20234;-78
2023/08/25 00:34:20;;;;;;;7.10;5.43;;;26.60;99.90;;;;;;5061957;28;20321;-78
2023/08/25 00:36:49;;;;;;;7.07;5.80;;;26.50;99.90;;;;;;5065279;28;20218;-78
2023/08/25 00:39:15;;;;;;;7.03;6.03;;;26.50;99.90;;;;;;5061763;28;20258;-78
2023/08/25 00:41:42;;;;;;;7.50;6.00;;;26.50;99.90;;;;;;5061939;28;20205;-78
2023/08/25 00:44:09;;;;;;;7.30;6.60;;;26.50;99.90;;;;;;5062266;28;20282;-78
2023/08/25 00:46:36;;;;;;;6.93;6.15;;;26.50;99.90;;;;;;5063812;28;20275;-78
2023/08/25 00:49:04;;;;;;;8.27;6.45;;;26.50;99.90;;;;;;5063313;28;20317;-78
2023/08/25 00:51:31;;;;;;;7.03;6.32;;;26.50;99.90;;;;;;5061359;28;20285;-78
2023/08/25 00:53:59;;;;;;;7.00;6.28;;;26.50;99.90;;;;;;5060976;28;20202;-78
2023/08/25 00:56:26;;;;;;;6.47;5.88;;;26.50;99.90;;;;;;5062237;28;20206;-78
2023/08/25 00:58:54;;;;;;;8.80;6.13;;;26.40;99.90;;;;;;5063285;28;20203;-78
2023/08/25 01:01:22;;;;;;;8.45;6.15;;;26.40;99.90;;;;;;5059079;28;20669;-79
2023/08/25 01:03:50;;;;;;;8.25;6.03;;;26.40;99.90;;;;;;5059709;28;20287;-78
2023/08/25 01:06:17;;;;;;;7.68;6.25;;;26.40;99.90;;;;;;5060672;28;20233;-78
2023/08/25 01:08:44;;;;;;;8.50;5.72;;;26.40;99.90;;;;;;5058818;28;20880;-79
2023/08/25 01:11:26;;;;;;;9.88;5.88;;;26.30;99.90;;;;;;5059769;28;20201;-78
2023/08/25 01:14:03;;;;;;;6.85;5.55;;;26.30;99.90;;;;;;5062935;28;20818;-78
2023/08/25 01:16:35;;;;;;;5.72;4.85;;;26.20;99.90;;;;;;5064266;28;20644;-78
2023/08/25 01:19:05;;;;;;;5.85;5.25;;;26.20;99.90;;;;;;5062586;28;20203;-78
2023/08/25 01:21:35;;;;;;;7.43;6.07;;;26.10;99.90;;;;;;5062462;28;20198;-79
2023/08/25 01:24:11;;;;;;;6.30;5.50;;;26.20;99.90;;;;;;5059350;28;20256;-79
2023/08/25 01:26:41;;;;;;;8.75;5.55;;;26.10;99.90;;;;;;5063863;28;20230;-78
2023/08/25 01:29:07;;;;;;;7.45;5.78;;;26.10;99.90;;;;;;5056995;28;20796;-79
2023/08/25 01:31:34;;;;;;;6.43;5.15;;;26.10;99.90;;;;;;5056273;28;20198;-78
2023/08/25 01:34:02;;;;;;;6.05;5.50;;;26.20;99.90;;;;;;5060747;28;20227;-78
2023/08/25 01:36:38;;;;;;;8.65;5.43;;;26.20;99.90;;;;;;5059377;28;20199;-79
2023/08/25 01:39:08;;;;;;;9.20;5.18;;;26.10;99.90;;;;;;5061875;28;20328;-80
2023/08/25 01:41:42;;;;;;;5.28;4.78;;;26.20;99.90;;;;;;5062798;28;20229;-78
2023/08/25 01:44:12;;;;;;;5.72;5.03;;;26.20;99.90;;;;;;5061886;28;21811;-79
2023/08/25 01:46:41;;;;;;;5.95;4.85;;;26.20;99.90;;;;;;5063590;28;20791;-79
2023/08/25 01:49:10;;;;;;;8.18;5.00;;;26.20;99.90;;;;;;5060894;28;20821;-78
2023/08/25 01:51:37;;;;;;;7.40;5.70;;;26.10;99.90;;;;;;5060926;28;20232;-79
2023/08/25 01:54:04;;;;;;;8.02;5.88;;;26.10;99.90;;;;;;5061783;28;20264;-79
2023/08/25 01:56:31;;;;;;;6.65;5.30;;;26.10;99.90;;;;;;5058825;28;20265;-79
2023/08/25 01:58:59;;;;;;;7.07;5.75;;;26.10;99.90;;;;;;5053861;28;20203;-78
2023/08/25 02:01:27;;;;;;;9.35;5.50;;;26.10;99.90;;;;;;5056672;28;20203;-79
2023/08/25 02:03:54;;;;;;;6.88;5.45;;;26.10;99.90;;;;;;5060266;28;20607;-79
2023/08/25 02:06:21;;;;;;;6.00;5.03;;;26.10;99.90;;;;;;5057677;28;20213;-78
2023/08/25 02:08:48;;;;;;;7.38;5.32;;;26.10;99.90;;;;;;5052608;28;20225;-79
2023/08/25 02:11:15;;;;;;;6.82;5.60;;;26.10;99.90;;;;;;5058876;28;20613;-79
2023/08/25 02:13:42;;;;;;;6.47;4.88;;;26.10;99.90;;;;;;5058461;28;20206;-79
2023/08/25 02:16:10;;;;;;;5.35;4.85;;;26.10;99.90;;;;;;5058370;28;20682;-79
2023/08/25 02:18:37;;;;;;;6.15;5.55;;;26.10;99.90;;;;;;5058586;28;20221;-78
2023/08/25 02:21:04;;;;;;;6.97;5.50;;;26.00;99.90;;;;;;5059860;28;20229;-78
2023/08/25 02:23:31;;;;;;;7.28;5.55;;;26.00;99.90;;;;;;5062538;28;20637;-79
2023/08/25 02:25:58;;;;;;;6.18;5.57;;;26.00;99.90;;;;;;5060415;28;20244;-77
2023/08/25 02:28:25;;;;;;;5.90;5.32;;;26.00;99.90;;;;;;5058506;28;20264;-79
2023/08/25 02:30:52;;;;;;;5.85;5.25;;;25.90;99.90;;;;;;5062148;28;20829;-78
2023/08/25 02:33:20;;;;;;;6.80;5.40;;;26.00;99.90;;;;;;5063887;28;20218;-79
2023/08/25 02:35:47;;;;;;;5.40;4.88;;;25.90;99.90;;;;;;5065061;28;20202;-79
2023/08/25 02:38:15;;;;;;;6.70;4.88;;;25.90;99.90;;;;;;5067787;28;20223;-78
2023/08/25 02:40:42;;;;;;;6.63;4.95;;;25.90;99.90;;;;;;5062595;28;20284;-79
2023/08/25 02:43:09;;;;;;;5.90;5.28;;;25.90;99.90;;;;;;5065540;28;20290;-78
2023/08/25 02:45:37;;;;;;;6.90;5.20;;;25.80;99.90;;;;;;5066433;28;20230;-79
2023/08/25 02:48:05;;;;;;;6.80;5.25;;;25.80;99.90;;;;;;5067023;28;20241;-78
2023/08/25 02:50:34;;;;;;;6.00;5.40;;;25.80;99.90;;;;;;5067447;28;20194;-78
2023/08/25 02:53:01;;;;;;;5.38;4.82;;;25.80;99.90;;;;;;5066927;28;20202;-79
2023/08/25 02:55:28;;;;;;;5.90;5.38;;;25.70;99.90;;;;;;5066843;28;20752;-78
2023/08/25 02:57:55;;;;;;;7.30;5.60;;;25.80;99.90;;;;;;5069129;28;20222;-80
2023/08/25 03:00:23;;;;;;;7.03;5.63;;;25.80;99.90;;;;;;5065002;28;20234;-79
2023/08/25 03:02:51;;;;;;;7.55;5.68;;;25.70;99.90;;;;;;5065292;28;20615;-79
2023/08/25 03:05:18;;;;;;;6.57;5.30;;;25.70;99.90;;;;;;5067588;28;20230;-79
2023/08/25 03:07:46;;;;;;;6.00;5.10;;;25.70;99.90;;;;;;5062930;28;20222;-80
2023/08/25 03:10:13;;;;;;;6.85;5.30;;;25.70;99.90;;;;;;5063237;28;20285;-79
2023/08/25 03:12:40;;;;;;;6.88;5.55;;;25.60;99.90;;;;;;5063987;28;20210;-79
2023/08/25 03:15:08;;;;;;;7.25;5.57;;;25.50;99.90;;;;;;5063476;28;20794;-79
2023/08/25 03:17:35;;;;;;;6.03;5.43;;;25.50;99.90;;;;;;5064048;28;20254;-77
2023/08/25 03:20:02;;;;;;;8.35;5.47;;;25.50;99.90;;;;;;5064952;28;20197;-79
2023/08/25 03:22:29;;;;;;;7.32;5.43;;;25.50;99.90;;;;;;5066719;28;22885;-79
2023/08/25 03:24:58;;;;;;;5.60;5.05;;;25.50;99.90;;;;;;5065317;28;20206;-78
2023/08/25 03:27:25;;;;;;;6.18;5.57;;;25.50;99.90;;;;;;5064787;28;20649;-78
2023/08/25 03:29:52;;;;;;;7.22;5.57;;;25.50;99.90;;;;;;5065287;28;20251;-79
2023/08/25 03:32:18;;;;;;;7.78;5.57;;;25.50;99.90;;;;;;5065873;28;20225;-79
2023/08/25 03:34:45;;;;;;;7.32;5.82;;;25.50;99.90;;;;;;5066362;28;20696;-77
2023/08/25 03:37:12;;;;;;;8.85;5.43;;;25.40;99.90;;;;;;5066013;28;20246;-79
2023/08/25 03:39:39;;;;;;;6.50;5.78;;;25.40;99.90;;;;;;5064718;28;20542;-79
2023/08/25 03:42:08;;;;;;;6.57;5.57;;;25.40;99.90;;;;;;5062598;28;20234;-78
2023/08/25 03:44:35;;;;;;;6.85;5.05;;;25.40;99.90;;;;;;5058138;28;20222;-79
2023/08/25 03:47:02;;;;;;;7.30;5.30;;;25.40;99.90;;;;;;5059992;28;20218;-78
2023/08/25 03:49:30;;;;;;;6.00;5.40;;;25.40;99.90;;;;;;5062510;28;20222;-79
2023/08/25 03:51:59;;;;;;;6.97;5.38;;;25.40;99.90;;;;;;5066776;28;20200;-79
2023/08/25 03:54:27;;;;;;;5.60;5.05;;;25.40;99.90;;;;;;5062132;28;20225;-79
2023/08/25 03:56:54;;;;;;;8.18;5.10;;;25.30;99.90;;;;;;5067207;28;20218;-79
2023/08/25 03:59:23;;;;;;;5.65;4.97;;;25.20;99.90;;;;;;5064982;28;20198;-78
2023/08/25 04:01:49;;;;;;;6.15;5.30;;;25.20;99.90;;;;;;5066793;28;20199;-79
2023/08/25 04:04:16;;;;;;;6.03;5.20;;;25.20;99.90;;;;;;5071105;28;20241;-80
2023/08/25 04:06:43;;;;;;;5.70;5.07;;;25.20;99.90;;;;;;5065878;28;20959;-78
2023/08/25 04:09:13;;;;;;;7.45;5.70;;;25.20;99.90;;;;;;5066311;28;20230;-78
2023/08/25 04:11:40;;;;;;;6.90;5.30;;;25.10;99.90;;;;;;5062557;28;20198;-78
2023/08/25 04:14:06;;;;;;;11.55;6.20;;;25.00;99.90;;;;;;5061100;28;20194;-79
2023/08/25 04:16:35;;;;;;;6.05;5.45;;;25.00;99.90;;;;;;5058018;28;20288;-78
2023/08/25 04:19:02;;;;;;;7.18;5.82;;;24.90;99.90;;;;;;5061958;28;20267;-77
2023/08/25 04:21:29;;;;;;;7.80;5.50;;;24.80;99.90;;;;;;5061049;28;20225;-78
2023/08/25 04:23:55;;;;;;;5.82;5.13;;;24.70;99.90;;;;;;5058885;28;20276;-77
2023/08/25 04:26:22;;;;;;;5.78;5.13;;;24.70;99.90;;;;;;5059243;28;20233;-79
2023/08/25 04:28:49;;;;;;;7.07;5.53;;;24.70;99.90;;;;;;5059781;28;20206;-77
2023/08/25 04:31:16;;;;;;;7.53;5.32;;;24.60;99.90;;;;;;5062195;28;20251;-78
2023/08/25 04:33:44;;;;;;;6.20;5.60;;;24.50;99.90;;;;;;5056274;28;20230;-79
2023/08/25 04:36:14;;;;;;;7.20;5.35;;;24.40;99.90;;;;;;5061765;28;20229;-78
2023/08/25 04:38:40;;;;;;;5.80;5.20;;;24.40;99.90;;;;;;5060702;28;20229;-79
2023/08/25 04:41:07;;;;;;;7.82;5.65;;;24.40;99.90;;;;;;5061009;28;20770;-78
2023/08/25 04:43:34;;;;;;;5.88;5.28;;;24.40;99.90;;;;;;5059585;28;20527;-77
2023/08/25 04:46:02;;;;;;;8.65;4.75;;;24.30;99.90;;;;;;5059174;28;20285;-78
2023/08/25 04:48:29;;;;;;;5.82;4.82;;;24.30;99.90;;;;;;5059310;28;20313;-80
2023/08/25 04:50:57;;;;;;;5.90;5.10;;;24.40;99.90;;;;;;5057089;28;20281;-78
2023/08/25 04:53:24;;;;;;;7.80;5.65;;;24.50;99.90;;;;;;5059005;28;20198;-78
2023/08/25 04:55:51;;;;;;;8.02;5.25;;;24.50;99.90;;;;;;5057957;28;20316;-77
2023/08/25 04:58:18;;;;;;;6.30;5.63;;;24.50;99.90;;;;;;5060907;28;20214;-78
2023/08/25 05:00:45;;;;;;;7.75;5.72;;;24.40;99.90;;;;;;5056070;28;20515;-77
2023/08/25 05:03:11;;;;;;;6.93;5.65;;;24.30;99.90;;;;;;5062823;28;20289;-78
2023/08/25 05:05:39;;;;;;;8.43;5.57;;;24.40;99.90;;;;;;5059349;28;20224;-79
2023/08/25 05:08:07;;;;;;;9.60;6.35;;;24.50;99.90;;;;;;5058521;28;20297;-78
2023/08/25 05:10:34;;;;;;;9.63;6.00;;;24.60;99.90;;;;;;5055865;28;20202;-78
2023/08/25 05:13:01;;;;;;;8.75;5.82;;;24.70;99.90;;;;;;5059940;28;20294;-77
2023/08/25 05:15:28;;;;;;;6.53;5.72;;;24.90;99.90;;;;;;5056868;28;20202;-77
2023/08/25 05:17:55;;;;;;;6.13;5.53;;;25.00;99.90;;;;;;5050522;28;20643;-77
2023/08/25 05:20:22;;;;;;;5.72;4.93;;;25.20;99.90;;;;;;5053597;28;20303;-77
2023/08/25 05:22:50;;;;;;;7.97;6.22;;;25.30;99.90;;;;;;5051402;28;20225;-77
2023/08/25 05:25:20;;;;;;;5.97;5.35;;;25.40;99.90;;;;;;5049879;28;20205;-77
2023/08/25 05:27:47;;;;;;;5.80;5.18;;;25.50;99.90;;;;;;5053295;28;20234;-77
2023/08/25 05:30:14;;;;;;;6.28;5.18;;;25.60;99.90;;;;;;5050738;28;21133;-77
2023/08/25 05:32:41;;;;;;;5.47;4.97;;;25.70;99.90;;;;;;5052232;28;20856;-77
2023/08/25 05:35:09;;;;;;;8.63;5.32;;;25.80;99.90;;;;;;5032021;28;20206;-77
2023/08/25 05:37:36;;;;;;;5.38;4.80;;;25.90;99.90;;;;;;5054339;28;20261;-79
2023/08/25 05:40:05;;;;;;;6.32;5.32;;;25.90;99.90;;;;;;5053271;28;20231;-77
2023/08/25 05:42:35;;;;;;;7.75;5.68;;;25.80;99.90;;;;;;5038321;28;20211;-77
2023/08/25 05:45:03;;;;;;;6.55;5.00;;;25.90;99.90;;;;;;5050073;28;20202;-77
2023/08/25 05:47:30;;;;;;;6.38;4.90;;;26.00;99.90;;;;;;5052745;28;20272;-77
2023/08/25 05:49:58;;;;;;;7.03;4.43;;;26.20;99.90;;;;;;5051346;28;20624;-77
2023/08/25 05:52:25;;;;;;;8.20;5.30;;;26.30;99.90;;;;;;5051895;28;20271;-78
2023/08/25 05:54:52;;;;;;;6.93;5.20;;;26.30;99.90;;;;;;5051981;28;20210;-77
2023/08/25 05:57:18;;;;;;;11.50;5.80;;;26.40;99.90;;;;;;5047413;28;20230;-77
2023/08/25 05:59:48;;;;;;;6.15;4.90;;;26.50;99.90;;;;;;5049802;28;20301;-77
2023/08/25 06:02:15;;;;;;;7.95;4.95;;;26.70;99.90;;;;;;5050133;28;20206;-77
2023/08/25 06:04:42;;;;;;;4.13;3.75;;;26.90;99.90;;;;;;5049970;28;20206;-77
2023/08/25 06:07:09;;;;;;;4.88;4.35;;;27.20;99.90;;;;;;5050785;28;20317;-77
2023/08/25 06:09:35;;;;;;;5.10;4.20;;;27.40;99.90;;;;;;5058291;28;20576;-78
2023/08/25 06:12:02;;;;;;;10.75;5.30;;;27.70;99.90;;;;;;5056686;28;20203;-78
2023/08/25 06:14:30;;;;;;;7.20;5.75;;;27.80;99.90;;;;;;5059576;28;20225;-79
2023/08/25 06:17:01;;;;;;;7.97;5.30;;;27.80;99.90;;;;;;5054416;28;20221;-77
2023/08/25 06:19:28;;;;;;;7.53;4.90;;;27.90;99.90;;;;;;5048518;28;20226;-77
2023/08/25 06:21:55;;;;;;;8.10;5.43;;;27.80;99.90;;;;;;5051996;28;20202;-77
2023/08/25 06:24:24;;;;;;;7.25;4.75;;;27.60;99.90;;;;;;5056736;28;20217;-78
2023/08/25 06:26:52;;;;;;;7.55;5.05;;;27.50;99.90;;;;;;5055351;28;20221;-77
2023/08/25 06:29:19;;;;;;;6.35;5.10;;;27.30;99.90;;;;;;5047854;28;20518;-77
2023/08/25 06:31:46;;;;;;;7.15;5.22;;;27.20;99.90;;;;;;5050482;28;20290;-77
2023/08/25 06:34:15;;;;;;;8.55;4.88;;;27.40;99.90;;;;;;5052354;28;20206;-78
2023/08/25 06:36:41;;;;;;;8.43;5.53;;;27.70;99.90;;;;;;5050499;28;20225;-77
2023/08/25 06:39:08;;;;;;;7.50;6.00;;;27.70;99.90;;;;;;5052199;28;20302;-78
2023/08/25 06:41:35;;;;;;;7.60;5.05;;;27.80;99.90;;;;;;5053261;28;20575;-77
2023/08/25 06:44:02;;;;;;;6.38;4.93;;;27.90;99.90;;;;;;5046332;28;20211;-77
2023/08/25 06:46:29;;;;;;;7.78;4.90;;;28.00;99.90;;;;;;5051156;28;20271;-78
2023/08/25 06:48:56;;;;;;;9.85;5.60;;;28.20;99.90;;;;;;5051436;28;20229;-78
2023/08/25 06:51:25;;;;;;;6.63;4.93;;;28.40;99.90;;;;;;5055778;28;20897;-79
2023/08/25 06:53:52;;;;;;;8.02;5.28;;;28.30;99.90;;;;;;5053813;28;20211;-78
2023/08/25 06:56:19;;;;;;;8.27;5.90;;;28.20;99.90;;;;;;5060045;28;20194;-77
2023/08/25 06:58:46;;;;;;;7.47;5.47;;;28.30;99.90;;;;;;5055347;28;20250;-79
2023/08/25 07:01:13;;;;;;;9.40;6.28;;;28.20;99.90;;;;;;5052401;28;20222;-79
2023/08/25 07:03:40;;;;;;;9.40;6.15;;;28.20;99.90;;;;;;5051211;28;20206;-79
2023/08/25 07:06:07;;;;;;;8.15;5.63;;;28.20;99.90;;;;;;5051467;28;20234;-79
2023/08/25 07:08:37;;;;;;;8.55;5.55;;;28.20;99.90;;;;;;5051672;28;20822;-79
2023/08/25 07:11:04;;;;;;;7.13;5.32;;;28.40;99.90;;;;;;5052893;28;20208;-79
2023/08/25 07:13:32;;;;;;;7.85;5.70;;;28.60;99.90;;;;;;5052186;28;20286;-79
2023/08/25 07:15:59;;;;;;;12.15;5.72;;;28.70;99.90;;;;;;5052088;28;20554;-78
2023/08/25 07:18:26;;;;;;;8.65;5.63;;;28.70;99.90;;;;;;5050503;28;20972;-78
2023/08/25 07:20:53;;;;;;;7.95;5.50;;;28.60;99.90;;;;;;5054576;28;20209;-79
2023/08/25 07:23:20;;;;;;;8.65;5.25;;;28.70;99.90;;;;;;5057355;28;20229;-79
2023/08/25 07:25:52;;;;;;;8.80;5.47;;;28.80;99.90;;;;;;5056673;28;20205;-78
2023/08/25 07:28:19;;;;;;;7.28;5.45;;;28.90;99.90;;;;;;5061009;28;20246;-79
2023/08/25 07:30:46;;;;;;;10.43;5.65;;;29.00;99.90;;;;;;5054894;28;20234;-78
2023/08/25 07:33:13;;;;;;;6.53;5.28;;;29.00;99.90;;;;;;5060514;28;20218;-78
2023/08/25 07:35:41;;;;;;;10.60;5.38;;;29.20;99.90;;;;;;5056382;28;20206;-79
2023/08/25 07:38:09;;;;;;;9.18;6.40;;;29.40;99.90;;;;;;5057537;28;20226;-78
2023/08/25 07:40:36;;;;;;;6.68;5.70;;;29.50;99.90;;;;;;5055437;28;20295;-78
2023/08/25 07:43:04;;;;;;;8.75;6.20;;;29.40;99.90;;;;;;5057770;28;20272;-78
2023/08/25 07:45:32;;;;;;;10.55;6.72;;;29.30;99.90;;;;;;5050681;28;20280;-78
2023/08/25 07:47:59;;;;;;;10.55;6.03;;;29.20;99.90;;;;;;5057565;28;20226;-78
2023/08/25 07:50:28;;;;;;;11.35;6.47;;;29.30;99.90;;;;;;5057976;28;20270;-77
2023/08/25 07:52:55;;;;;;;11.70;6.72;;;29.20;99.90;;;;;;5053393;28;21064;-78
2023/08/25 07:55:23;;;;;;;9.35;5.95;;;29.20;99.90;;;;;;5058906;28;20301;-79
2023/08/25 07:57:50;;;;;;;9.27;6.13;;;29.20;99.90;;;;;;5052795;28;20222;-78
2023/08/25 08:00:19;;;;;;;9.07;6.57;;;29.20;99.90;;;;;;5069819;28;20214;-78
2023/08/25 08:02:47;;;;;;;8.90;6.43;;;29.30;99.90;;;;;;5062199;28;20207;-77
2023/08/25 08:05:15;;;;;;;9.18;6.47;;;29.50;99.90;;;;;;5065765;28;20224;-78
2023/08/25 08:07:43;;;;;;;10.02;6.57;;;29.60;99.90;;;;;;5069480;28;20309;-78
2023/08/25 08:10:11;;;;;;;6.88;6.07;;;30.00;99.90;;;;;;5073172;28;20689;-78
2023/08/25 08:12:38;;;;;;;8.07;5.55;;;30.20;99.90;;;;;;5077368;28;20617;-78
2023/08/25 08:15:09;;;;;;;9.95;6.38;;;30.40;99.90;;;;;;5067339;28;20206;-78
2023/08/25 08:17:37;;;;;;;7.78;6.63;;;30.60;99.90;;;;;;5069039;28;20298;-78
2023/08/25 08:20:07;;;;;;;7.80;6.00;;;30.70;99.90;;;;;;5065727;28;20710;-77
2023/08/25 08:22:34;;;;;;;9.70;6.18;;;30.90;99.90;;;;;;5068962;28;20237;-78
2023/08/25 08:25:01;;;;;;;14.70;6.78;;;30.90;99.90;;;;;;5073777;28;20251;-78
2023/08/25 08:27:28;;;;;;;9.95;6.38;;;30.80;99.90;;;;;;5061626;28;20217;-78
2023/08/25 08:29:55;;;;;;;12.98;7.18;;;30.60;99.90;;;;;;5061732;28;20195;-77
2023/08/25 08:32:22;;;;;;;9.23;6.40;;;30.60;99.90;;;;;;5063358;28;20218;-77
2023/08/25 08:34:50;;;;;;;8.43;6.47;;;30.60;99.90;;;;;;5064164;28;20281;-78
2023/08/25 08:37:17;;;;;;;9.88;6.53;;;30.70;99.90;;;;;;5060007;28;20235;-77
2023/08/25 08:39:45;;;;;;;10.27;7.03;;;30.80;99.90;;;;;;5059016;28;20240;-77
2023/08/25 08:42:14;;;;;;;12.00;6.90;;;31.00;99.90;;;;;;5059969;28;20289;-77
2023/08/25 08:44:45;;;;;;;11.10;7.03;;;31.10;99.90;;;;;;5066754;28;20206;-77
2023/08/25 08:47:12;;;;;;;12.23;7.25;;;31.30;99.90;;;;;;5060649;28;20606;-78
2023/08/25 08:49:41;;;;;;;12.90;7.35;;;31.40;99.90;;;;;;5054070;28;20230;-78
2023/08/25 08:52:10;;;;;;;9.90;6.93;;;31.40;99.90;;;;;;5054386;28;20202;-78
2023/08/25 08:54:38;;;;;;;9.82;7.00;;;31.30;99.90;;;;;;5057576;28;20226;-76
2023/08/25 08:57:08;;;;;;;10.80;7.25;;;31.20;99.90;;;;;;5059034;28;20218;-78
2023/08/25 08:59:35;;;;;;;10.43;6.90;;;31.20;99.90;;;;;;5056283;28;20227;-77
2023/08/25 09:02:05;;;;;;;10.90;6.55;;;31.40;99.90;;;;;;5059814;28;20292;-77
2023/08/25 09:04:32;;;;;;;10.43;6.65;;;31.50;99.90;;;;;;5056896;28;20203;-79
2023/08/25 09:07:01;;;;;;;9.75;7.07;;;31.50;99.90;;;;;;5061944;28;20309;-78
2023/08/25 09:09:30;;;;;;;9.52;7.25;;;31.80;99.90;;;;;;5057639;28;20321;-79
2023/08/25 09:11:57;;;;;;;10.40;6.90;;;32.10;99.90;;;;;;5056910;28;20233;-78
2023/08/25 09:14:25;;;;;;;9.90;7.13;;;32.20;99.90;;;;;;5060722;28;20683;-78
2023/08/25 09:16:55;;;;;;;11.57;7.10;;;32.30;99.90;;;;;;5056972;28;20228;-77
2023/08/25 09:19:22;;;;;;;8.10;6.45;;;32.40;99.90;;;;;;5054637;28;20309;-78
2023/08/25 09:21:49;;;;;;;11.60;6.82;;;32.60;99.90;;;;;;5056861;28;20199;-78
2023/08/25 09:24:20;;;;;;;11.77;7.07;;;32.80;99.90;;;;;;5056360;28;20231;-79
2023/08/25 09:26:49;;;;;;;9.63;6.80;;;32.70;99.90;;;;;;5055999;28;20313;-78
2023/08/25 09:29:16;;;;;;;12.27;7.03;;;32.60;99.90;;;;;;5054505;28;20406;-78
2023/08/25 09:31:44;;;;;;;9.65;6.38;;;32.70;99.90;;;;;;5053446;28;20211;-76
2023/08/25 09:34:13;;;;;;;10.38;6.38;;;33.00;99.90;;;;;;5050191;28;20684;-77
2023/08/25 09:36:51;;;;;;;8.80;6.63;;;33.20;99.90;;;;;;5049525;28;20375;-79
2023/08/25 09:39:19;;;;;;;8.43;6.88;;;33.00;99.90;;;;;;5050273;28;20405;-79
2023/08/25 09:41:46;;;;;;;7.88;6.20;;;33.00;99.90;;;;;;5052171;28;20195;-78
2023/08/25 09:44:15;;;;;;;7.35;6.22;;;33.00;99.90;;;;;;5051402;28;20214;-78
2023/08/25 09:46:43;;;;;;;10.57;7.10;;;33.20;99.90;;;;;;5052851;28;20226;-79
2023/08/25 09:49:13;;;;;;;8.80;6.80;;;33.20;99.90;;;;;;5053226;28;20628;-78
2023/08/25 09:51:41;;;;;;;8.82;6.40;;;33.10;99.90;;;;;;5049874;28;20199;-78
2023/08/25 09:54:12;;;;;;;10.18;6.88;;;33.10;99.90;;;;;;5053548;28;20232;-78
2023/08/25 09:56:40;;;;;;;9.77;6.50;;;33.10;99.90;;;;;;5047200;28;20219;-78
2023/08/25 09:59:08;;;;;;;8.77;6.18;;;33.10;99.90;;;;;;5051008;28;20195;-79
2023/08/25 10:01:39;;;;;;;11.20;7.30;;;33.30;99.90;;;;;;5049747;28;20217;-78
2023/08/25 10:04:06;;;;;;;10.88;6.63;;;33.40;99.90;;;;;;5051385;28;20234;-76
2023/08/25 10:06:37;;;;;;;12.90;7.30;;;33.50;99.90;;;;;;5052872;28;20648;-79
2023/08/25 10:09:05;;;;;;;11.20;7.40;;;33.50;99.90;;;;;;5051702;28;20206;-77
2023/08/25 10:11:36;;;;;;;12.02;7.28;;;33.60;99.90;;;;;;5053735;28;20737;-78
2023/08/25 10:14:06;;;;;;;10.10;7.07;;;33.70;99.90;;;;;;5057098;28;21148;-77
2023/08/25 10:16:39;;;;;;;11.13;7.10;;;33.70;99.90;;;;;;5056031;28;20623;-78
2023/08/25 10:19:08;;;;;;;8.32;6.88;;;33.70;99.90;;;;;;5061395;28;20678;-78
2023/08/25 10:21:36;;;;;;;10.25;6.65;;;33.80;99.90;;;;;;5059499;28;20206;-78
2023/08/25 10:24:03;;;;;;;9.10;7.35;;;33.80;99.90;;;;;;5058723;28;20255;-77
2023/08/25 10:26:31;;;;;;;9.73;6.40;;;33.80;99.90;;;;;;5061931;28;20873;-77
2023/08/25 10:28:59;;;;;;;7.57;6.47;;;33.80;99.90;;;;;;5065185;28;20209;-77
2023/08/25 10:31:27;;;;;;;10.05;6.70;;;33.80;99.90;;;;;;5063899;28;20232;-77
2023/08/25 10:33:56;;;;;;;10.45;6.47;;;33.90;99.90;;;;;;5061467;28;20198;-77
2023/08/25 10:36:24;;;;;;;9.00;6.68;;;34.10;99.90;;;;;;5063852;28;20415;-77
2023/08/25 10:39:10;;;;;;;8.38;6.30;;;34.20;99.90;;;;;;5062753;28;20202;-76
2023/08/25 10:41:43;;;;;;;10.80;6.78;;;34.30;99.90;;;;;;5060811;28;20376;-76
2023/08/25 10:44:20;;;;;;;11.55;6.95;;;34.30;99.90;;;;;;5060774;28;20214;-77
2023/08/25 10:46:47;;;;;;;11.40;6.28;;;34.20;99.90;;;;;;5064264;28;20595;-77
2023/08/25 10:49:15;;;;;;;9.15;5.75;;;34.30;99.90;;;;;;5065723;28;20277;-76
2023/08/25 10:51:42;;;;;;;7.65;5.93;;;34.30;99.90;;;;;;5063416;28;20205;-77
2023/08/25 10:54:19;;;;;;;8.35;5.65;;;34.40;99.90;;;;;;5062108;28;20209;-76
2023/08/25 10:56:46;;;;;;;7.63;5.85;;;34.60;99.90;;;;;;5063375;28;21089;-78
2023/08/25 10:59:14;;;;;;;8.20;5.97;;;34.90;99.90;;;;;;5064795;28;20876;-78
2023/08/25 11:01:57;;;;;;;8.93;5.18;;;34.70;99.90;;;;;;5073276;28;20248;-77
2023/08/25 11:04:27;;;;;;;6.80;5.30;;;34.80;99.90;;;;;;5069366;28;20198;-78
2023/08/25 11:06:55;;;;;;;6.47;4.97;;;34.90;99.90;;;;;;5065203;28;20219;-77
2023/08/25 11:09:30;;;;;;;8.52;5.28;;;34.70;99.90;;;;;;5069628;28;20622;-80
2023/08/25 11:12:03;;;;;;;7.13;5.30;;;34.60;99.90;;;;;;5063244;28;20194;-78
2023/08/25 11:14:30;;;;;;;7.88;5.47;;;34.60;99.90;;;;;;5073737;28;20821;-78
2023/08/25 11:16:57;;;;;;;7.35;5.05;;;34.90;99.90;;;;;;5072019;28;20213;-77
2023/08/25 11:19:27;;;;;;;8.45;4.97;;;34.90;99.90;;;;;;5067109;28;20285;-78
2023/08/25 11:21:59;;;;;;;6.72;4.78;;;35.10;99.90;;;;;;5062418;28;20229;-78
2023/08/25 11:24:26;;;;;;;5.93;5.05;;;35.00;99.90;;;;;;5062790;28;20206;-77
2023/08/25 11:26:57;;;;;;;9.95;5.60;;;35.00;99.90;;;;;;5049130;28;20289;-77
2023/08/25 11:29:26;;;;;;;9.25;5.30;;;35.00;99.90;;;;;;5062233;28;20199;-77
2023/08/25 11:31:55;;;;;;;9.40;5.97;;;35.00;99.90;;;;;;5063181;28;20206;-78
2023/08/25 11:35:10;;;;;;;7.55;5.15;;;35.00;99.90;;;;;;5067209;28;20209;-80
2023/08/25 11:37:40;;;;;;;9.65;5.28;;;35.00;99.90;;;;;;5065350;28;20218;-77
2023/08/25 11:40:14;;;;;;;9.18;4.85;;;35.00;99.90;;;;;;5066637;28;20699;-76
2023/08/25 11:42:42;;;;;;;11.95;5.53;;;34.90;99.90;;;;;;5064583;28;20202;-76
2023/08/25 11:45:09;;;;;;;10.85;6.03;;;34.80;99.90;;;;;;5063435;28;20600;-77
2023/08/25 11:47:37;;;;;;;8.48;5.60;;;34.70;99.90;;;;;;5055714;28;20704;-76
2023/08/25 11:50:07;;;;;;;5.55;4.72;;;34.60;99.90;;;;;;5066262;28;20755;-77
2023/08/25 11:52:34;;;;;;;10.63;6.22;;;34.70;99.90;;;;;;5063796;28;20351;-78
2023/08/25 11:55:01;;;;;;;8.32;5.93;;;34.70;99.90;;;;;;5065742;28;20342;-77
2023/08/25 11:57:34;;;;;;;9.60;5.72;;;34.90;99.90;;;;;;5063929;28;20291;-78
2023/08/25 12:00:04;;;;;;;8.10;5.55;;;35.00;99.90;;;;;;5066669;28;20597;-79
2023/08/25 12:02:32;;;;;;;13.10;6.85;;;35.10;99.90;;;;;;5060878;28;20202;-79
2023/08/25 12:05:02;;;;;;;8.63;6.20;;;35.10;99.90;;;;;;5065538;28;20243;-78
2023/08/25 12:07:32;;;;;;;7.15;5.63;;;35.20;99.90;;;;;;5064629;28;20390;-76
2023/08/25 12:10:00;;;;;;;9.27;5.78;;;35.20;99.90;;;;;;5062417;28;20263;-77
2023/08/25 12:12:31;;;;;;;7.25;5.82;;;35.30;99.90;;;;;;5062863;28;20224;-79
2023/08/25 12:14:58;;;;;;;7.93;6.07;;;35.50;99.90;;;;;;5061649;28;20222;-81
2023/08/25 12:17:27;;;;;;;9.18;5.60;;;35.40;99.90;;;;;;5062491;28;20261;-79
2023/08/25 12:19:55;;;;;;;7.07;5.78;;;35.40;99.90;;;;;;5065283;28;20186;-78
2023/08/25 12:22:23;;;;;;;8.95;6.03;;;35.40;99.90;;;;;;5069391;28;20286;-81
2023/08/25 12:24:52;;;;;;;8.85;5.75;;;35.50;99.90;;;;;;5069622;28;20256;-78
2023/08/25 12:27:19;;;;;;;8.73;6.40;;;35.60;99.90;;;;;;5062794;28;20791;-78
2023/08/25 12:29:46;;;;;;;7.22;6.45;;;35.60;99.90;;;;;;5062489;28;20263;-77
2023/08/25 12:32:13;;;;;;;10.82;7.35;;;35.50;99.90;;;;;;5063166;28;20230;-78
2023/08/25 12:34:40;;;;;;;13.30;7.07;;;35.30;99.90;;;;;;5064761;28;20283;-78
2023/08/25 12:37:07;;;;;;;9.70;6.72;;;35.30;99.90;;;;;;5066995;28;20295;-78
2023/08/25 12:39:34;;;;;;;8.32;5.72;;;35.30;99.90;;;;;;5063456;28;20199;-78
2023/08/25 12:42:04;;;;;;;11.02;6.65;;;35.30;99.90;;;;;;5063649;28;20308;-78
2023/08/25 12:44:33;;;;;;;7.65;6.45;;;35.50;99.90;;;;;;5067243;28;20281;-79
2023/08/25 12:47:01;;;;;;;8.40;5.97;;;35.40;99.90;;;;;;5064702;28;20771;-77
2023/08/25 12:49:28;;;;;;;10.00;6.93;;;35.30;99.90;;;;;;5063005;28;20288;-78
2023/08/25 12:51:55;;;;;;;7.20;6.50;;;35.30;99.90;;;;;;5061400;28;20218;-79